Time;durP1;ratioP1;P1;durP2;ratioP2;P2;SDS_P1;SDS_P2;PMS_P1;PMS_P2;Temp;Humidity;BMP_temperature;BMP_pressure;BME280_temperature;BME280_humidity;BME280_pressure;Samples;Min_cycle;Max_cycle;Signal;HPM_P1;HPM_P2
2023/08/16 00:03:56;;;;;;;1.55;0.95;;;;;;;23.53;47.66;101833.91;16125369;19;130844;-59
2023/08/16 00:09:20;;;;;;;3.50;1.10;;;;;;;23.52;47.31;101827.47;16122120;19;130117;-57
2023/08/16 00:14:42;;;;;;;1.38;0.85;;;;;;;23.51;47.05;101825.78;16125099;19;130656;-59
2023/08/16 00:20:06;;;;;;;1.10;0.70;;;;;;;23.50;47.68;101827.72;16120889;19;130865;-59
2023/08/16 00:25:28;;;;;;;2.05;1.00;;;;;;;23.50;47.39;101843.66;16122663;19;130275;-60
2023/08/16 00:30:53;;;;;;;2.53;1.00;;;;;;;23.49;47.50;101842.78;16123283;19;130570;-62
2023/08/16 00:36:15;;;;;;;1.35;1.05;;;;;;;23.47;47.25;101844.16;16124096;19;130005;-59
2023/08/16 00:41:37;;;;;;;1.73;0.93;;;;;;;23.49;47.14;101847.56;16121775;19;129963;-58
2023/08/16 00:47:00;;;;;;;3.70;0.90;;;;;;;23.47;47.20;101844.16;16122444;19;129593;-58
2023/08/16 00:52:22;;;;;;;1.38;0.85;;;;;;;23.46;47.33;101845.25;16121629;19;130591;-59
2023/08/16 00:57:44;;;;;;;1.83;0.95;;;;;;;23.45;47.61;101851.94;16114621;19;131288;-61
2023/08/16 01:03:06;;;;;;;2.30;1.20;;;;;;;23.45;47.23;101846.38;16119905;19;131555;-61
2023/08/16 01:08:28;;;;;;;1.83;1.13;;;;;;;23.44;47.12;101844.66;16114726;19;129644;-59
2023/08/16 01:14:05;;;;;;;2.45;1.13;;;;;;;23.43;47.15;101841.06;16119028;19;129950;-57
2023/08/16 01:19:29;;;;;;;2.45;1.08;;;;;;;23.41;47.21;101848.84;16118651;19;130338;-60
2023/08/16 01:25:19;;;;;;;1.48;1.00;;;;;;;23.42;47.35;101855.25;16116898;19;129527;-57
2023/08/16 01:30:45;;;;;;;2.65;1.10;;;;;;;23.39;47.14;101858.53;16111801;19;130122;-56
2023/08/16 01:36:07;;;;;;;2.97;1.10;;;;;;;23.39;47.45;101866.91;16118769;19;130388;-57
2023/08/16 01:41:53;;;;;;;2.70;1.13;;;;;;;23.39;47.24;101866.91;16114813;19;130392;-58
2023/08/16 01:47:15;;;;;;;;;;;;;;;23.34;47.22;101865.75;16118650;19;130055;-59
2023/08/16 01:52:38;;;;;;;2.38;1.15;;;;;;;23.36;47.18;101862.69;16114899;19;133137;-58
2023/08/16 01:58:00;;;;;;;1.73;1.08;;;;;;;23.36;46.81;101865.50;16116709;19;130650;-56
2023/08/16 02:03:22;;;;;;;3.15;1.23;;;;;;;23.34;47.50;101859.31;16116410;19;134477;-56
2023/08/16 02:08:44;;;;;;;2.33;1.05;;;;;;;23.33;47.14;101861.28;16111290;19;129228;-57
2023/08/16 02:14:07;;;;;;;1.63;1.05;;;;;;;23.34;47.01;101864.91;16116518;19;130980;-56
2023/08/16 02:19:29;;;;;;;2.63;1.30;;;;;;;23.33;47.48;101866.00;16115244;19;131287;-58
2023/08/16 02:24:51;;;;;;;1.88;1.13;;;;;;;23.31;47.34;101871.03;16107816;19;129672;-57
2023/08/16 02:30:13;;;;;;;2.80;0.85;;;;;;;23.31;47.21;101863.47;16108400;19;130863;-58
2023/08/16 02:35:35;;;;;;;3.58;1.15;;;;;;;23.30;47.14;101867.38;16108340;19;129599;-57
2023/08/16 02:40:58;;;;;;;2.30;1.00;;;;;;;23.30;47.02;101867.38;16111236;19;133645;-58
2023/08/16 02:46:19;;;;;;;2.33;1.30;;;;;;;23.30;46.98;101855.38;16110508;19;130837;-57
2023/08/16 02:51:41;;;;;;;2.13;1.30;;;;;;;23.28;46.84;101850.03;16114653;19;130657;-58
2023/08/16 02:57:03;;;;;;;2.55;1.55;;;;;;;23.27;47.05;101856.72;16113569;19;131355;-58
2023/08/16 03:02:27;;;;;;;1.75;1.30;;;;;;;23.26;47.19;101860.63;16109265;19;130024;-58
2023/08/16 03:07:49;;;;;;;3.47;1.30;;;;;;;23.26;47.00;101855.03;16112736;19;131534;-57
2023/08/16 03:13:11;;;;;;;3.47;1.60;;;;;;;23.25;46.91;101853.34;16111814;19;130417;-58
2023/08/16 03:18:33;;;;;;;2.20;1.13;;;;;;;23.25;46.99;101860.88;16109320;19;129379;-57
2023/08/16 03:23:55;;;;;;;2.65;1.67;;;;;;;23.24;46.54;101867.53;16108616;19;131068;-58
2023/08/16 03:29:18;;;;;;;3.25;1.50;;;;;;;23.24;47.02;101864.75;16108711;19;129936;-58
2023/08/16 03:34:42;;;;;;;2.78;1.60;;;;;;;23.23;46.58;101868.63;16110942;19;131378;-56
2023/08/16 03:40:06;;;;;;;3.73;1.83;;;;;;;23.22;46.89;101870.59;16108024;19;130221;-57
2023/08/16 03:45:28;;;;;;;2.67;1.35;;;;;;;23.22;46.66;101878.13;16107334;19;130737;-57
2023/08/16 03:50:49;;;;;;;2.28;1.20;;;;;;;23.20;47.27;101870.84;16109095;19;129493;-58
2023/08/16 03:56:11;;;;;;;2.10;1.45;;;;;;;23.21;47.01;101868.91;16109220;19;131606;-58
2023/08/16 04:01:35;;;;;;;2.53;1.40;;;;;;;23.20;47.06;101873.63;16107989;19;129885;-58
2023/08/16 04:06:57;;;;;;;3.15;1.50;;;;;;;23.19;46.97;101874.75;16107576;19;132065;-60
2023/08/16 04:12:19;;;;;;;3.00;1.48;;;;;;;23.18;46.84;101870.28;16103234;19;131523;-58
2023/08/16 04:17:41;;;;;;;3.67;1.60;;;;;;;23.17;46.90;101871.38;16111819;19;129680;-58
2023/08/16 04:23:03;;;;;;;3.05;1.10;;;;;;;23.17;47.05;101868.56;16108345;19;129929;-58
2023/08/16 04:28:25;;;;;;;3.00;1.42;;;;;;;23.18;47.11;101866.63;16109015;19;130001;-58
2023/08/16 04:33:49;;;;;;;3.47;1.73;;;;;;;23.15;46.92;101872.69;16121853;19;129862;-58
2023/08/16 04:39:12;;;;;;;2.50;1.20;;;;;;;23.15;46.71;101864.31;16122350;19;130386;-58
2023/08/16 04:44:34;;;;;;;4.00;1.65;;;;;;;23.15;47.23;101869.91;16119686;19;130310;-58
2023/08/16 04:49:56;;;;;;;2.85;1.42;;;;;;;23.14;46.59;101873.84;16120033;19;129997;-58
2023/08/16 04:55:18;;;;;;;4.68;1.52;;;;;;;23.12;47.12;101882.44;16120937;19;131274;-58
2023/08/16 05:00:39;;;;;;;3.33;1.80;;;;;;;23.13;46.94;101886.09;16114839;19;129417;-58
2023/08/16 05:06:03;;;;;;;4.10;1.75;;;;;;;23.12;46.68;101882.44;16118958;19;131998;-58
2023/08/16 05:11:24;;;;;;;3.35;1.85;;;;;;;23.11;46.85;101891.91;16117742;19;131337;-58
2023/08/16 05:16:46;;;;;;;2.95;1.35;;;;;;;23.10;46.93;101895.81;16119312;19;130893;-58
2023/08/16 05:22:08;;;;;;;3.10;1.60;;;;;;;23.10;46.62;101889.38;16119729;19;129747;-57
2023/08/16 05:27:30;;;;;;;2.83;1.90;;;;;;;23.10;46.83;101901.38;16112779;19;130641;-58
2023/08/16 05:32:56;;;;;;;3.15;1.70;;;;;;;23.10;46.74;101900.53;16109650;19;130644;-58
2023/08/16 05:38:21;;;;;;;3.20;1.50;;;;;;;23.09;46.96;101905.28;16109938;19;130059;-55
2023/08/16 05:43:43;;;;;;;4.30;2.28;;;;;;;23.09;46.95;101907.22;16108561;19;130801;-56
2023/08/16 05:49:05;;;;;;;6.93;2.92;;;;;;;23.06;47.01;101905.78;16112386;19;130489;-55
2023/08/16 05:54:27;;;;;;;10.55;2.92;;;;;;;23.07;47.09;101901.03;16109872;19;130517;-55
2023/08/16 05:59:49;;;;;;;8.50;3.05;;;;;;;23.06;46.92;101900.22;16113890;19;129377;-50
2023/08/16 06:05:11;;;;;;;7.32;2.85;;;;;;;23.04;46.80;101908.81;16107869;19;130206;-52
2023/08/16 06:10:33;;;;;;;11.77;4.40;;;;;;;23.04;47.25;101925.56;16110908;19;130970;-50
2023/08/16 06:15:55;;;;;;;9.60;3.30;;;;;;;23.03;47.14;101929.44;16112312;19;131295;-54
2023/08/16 06:21:17;;;;;;;10.13;3.75;;;;;;;23.05;47.12;101923.63;16111686;19;130181;-54
2023/08/16 06:26:39;;;;;;;8.65;3.92;;;;;;;23.07;47.04;101912.22;16111589;19;129746;-55
2023/08/16 06:32:02;;;;;;;7.15;3.65;;;;;;;23.13;46.58;101927.97;16115732;19;130653;-52
2023/08/16 06:37:24;;;;;;;9.32;3.90;;;;;;;23.19;46.95;101932.53;16101692;19;130084;-55
2023/08/16 06:42:50;;;;;;;10.05;3.55;;;;;;;23.21;46.45;101924.75;16109217;19;130939;-57
2023/08/16 06:48:12;;;;;;;6.25;3.25;;;;;;;23.22;46.34;101923.66;16109806;19;130886;-59
2023/08/16 06:53:34;;;;;;;13.45;4.65;;;;;;;23.25;46.49;101920.34;16111206;19;130987;-59
2023/08/16 06:58:56;;;;;;;8.25;3.40;;;;;;;23.25;46.69;101937.09;16110988;19;131557;-59
2023/08/16 07:04:18;;;;;;;7.88;3.58;;;;;;;23.23;46.73;101956.03;16109776;19;130973;-59
2023/08/16 07:09:40;;;;;;;7.43;3.30;;;;;;;23.19;46.34;101954.84;16109933;19;130778;-59
2023/08/16 07:15:02;;;;;;;9.10;3.53;;;;;;;23.16;46.76;101956.22;16110690;19;129614;-59
2023/08/16 07:20:24;;;;;;;7.45;3.45;;;;;;;23.14;46.88;101957.56;16107068;19;130069;-57
2023/08/16 07:25:46;;;;;;;8.32;3.13;;;;;;;23.13;47.05;101959.50;16110150;19;131243;-60
2023/08/16 07:31:08;;;;;;;11.23;3.55;;;;;;;23.13;46.67;101958.66;16103419;19;131168;-59
2023/08/16 07:36:31;;;;;;;7.93;2.80;;;;;;;23.13;46.78;101947.50;16104979;19;130596;-59
2023/08/16 07:41:55;;;;;;;9.00;2.47;;;;;;;23.12;47.13;101941.06;16105048;19;131018;-59
2023/08/16 07:47:20;;;;;;;;;;;;;;;23.13;46.92;101953.91;16104806;19;130166;-58
2023/08/16 07:52:42;;;;;;;7.10;3.33;;;;;;;23.17;46.50;101957.03;16105669;19;130825;-58
2023/08/16 07:58:04;;;;;;;7.43;2.25;;;;;;;23.17;47.22;101962.63;16108192;19;130368;-59
2023/08/16 08:03:26;;;;;;;5.70;2.40;;;;;;;23.17;46.85;101963.50;16109104;19;131010;-59
2023/08/16 08:08:48;;;;;;;10.55;2.60;;;;;;;23.19;46.81;101982.75;16116663;19;130342;-58
2023/08/16 08:14:11;;;;;;;8.82;2.95;;;;;;;23.18;46.99;101981.06;16120190;19;130329;-59
2023/08/16 08:19:33;;;;;;;7.05;2.53;;;;;;;23.17;46.83;101990.53;16119917;19;130543;-58
2023/08/16 08:24:55;;;;;;;6.47;2.60;;;;;;;23.16;46.51;101995.28;16116412;19;130412;-59
2023/08/16 08:30:18;;;;;;;9.35;2.42;;;;;;;23.15;46.98;102001.97;16120454;19;135023;-58
2023/08/16 08:35:40;;;;;;;7.30;2.17;;;;;;;23.13;46.75;101994.94;16122754;19;129589;-59
2023/08/16 08:41:06;;;;;;;3.70;1.77;;;;;;;23.13;46.33;102008.91;16125169;19;129646;-59
2023/08/16 08:46:30;;;;;;;6.57;2.22;;;;;;;23.13;46.72;102011.69;16121979;19;129615;-59
2023/08/16 08:51:54;;;;;;;7.10;1.80;;;;;;;23.14;46.92;102005.84;16121960;19;129436;-59
2023/08/16 08:57:18;;;;;;;5.30;2.35;;;;;;;23.14;46.85;102008.66;16125986;19;129500;-59
2023/08/16 09:02:43;;;;;;;7.90;1.90;;;;;;;23.14;46.62;102005.03;16123567;19;129412;-59
2023/08/16 09:08:06;;;;;;;7.80;1.63;;;;;;;23.15;46.84;102006.69;16119272;19;129459;-59
2023/08/16 09:13:31;;;;;;;5.40;1.88;;;;;;;23.16;46.97;102000.00;16119827;19;129601;-60
2023/08/16 09:18:54;;;;;;;4.82;1.67;;;;;;;23.16;46.64;102000.88;16120969;19;130219;-59
2023/08/16 09:24:23;;;;;;;3.78;2.00;;;;;;;23.18;46.94;101998.69;16120390;19;130431;-59
2023/08/16 09:29:45;;;;;;;6.07;1.65;;;;;;;23.19;46.74;101993.94;16118948;19;129670;-59
2023/08/16 09:35:12;;;;;;;5.75;2.10;;;;;;;23.20;46.74;101993.66;16119464;19;130880;-60
2023/08/16 09:40:34;;;;;;;3.50;1.85;;;;;;;23.22;46.74;101996.22;16121233;19;129880;-60
2023/08/16 09:45:56;;;;;;;3.30;1.35;;;;;;;23.24;46.80;101993.16;16117339;19;129989;-59
2023/08/16 09:51:21;;;;;;;3.78;1.80;;;;;;;23.25;46.45;101986.50;16120605;19;130679;-59
2023/08/16 09:57:04;;;;;;;4.18;1.60;;;;;;;23.25;46.96;101978.97;16118909;19;131217;-59
2023/08/16 10:02:30;;;;;;;4.57;1.67;;;;;;;23.26;46.90;101993.78;16119396;19;130611;-60
2023/08/16 10:07:59;;;;;;;4.15;1.88;;;;;;;23.28;46.48;101986.81;16116693;19;131153;-60
2023/08/16 10:13:22;;;;;;;6.50;1.40;;;;;;;23.33;46.91;101989.72;16113368;19;129817;-57
2023/08/16 10:18:46;;;;;;;4.45;1.80;;;;;;;23.37;46.66;101964.09;16118523;19;129408;-57
2023/08/16 10:24:11;;;;;;;4.03;1.50;;;;;;;23.40;47.02;101961.63;16117110;19;129572;-58
2023/08/16 10:29:38;;;;;;;4.43;1.45;;;;;;;23.46;47.09;101960.59;16116376;19;130308;-58
2023/08/16 10:34:59;;;;;;;4.03;1.40;;;;;;;23.51;47.01;101965.41;16116018;19;129931;-58
2023/08/16 10:40:22;;;;;;;3.83;1.48;;;;;;;23.57;46.96;101978.38;16111285;19;129806;-57
2023/08/16 10:45:47;;;;;;;3.97;1.85;;;;;;;23.62;47.16;101975.72;16112656;19;129859;-57
2023/08/16 10:51:15;;;;;;;2.22;1.40;;;;;;;23.65;47.07;101983.56;16108610;19;130450;-53
2023/08/16 10:56:50;;;;;;;4.80;1.57;;;;;;;23.70;46.98;101976.38;16110170;19;130226;-55
2023/08/16 11:02:17;;;;;;;3.07;1.40;;;;;;;23.73;46.74;101978.66;16115596;19;130427;-59
2023/08/16 11:07:43;;;;;;;4.70;1.63;;;;;;;23.78;47.06;101968.41;16114255;19;129458;-61
2023/08/16 11:13:13;;;;;;;6.63;1.57;;;;;;;23.79;47.00;101969.22;16115650;19;129716;-61
2023/08/16 11:18:37;;;;;;;6.05;1.48;;;;;;;23.82;47.11;101949.16;16113822;19;129732;-58
2023/08/16 11:24:23;;;;;;;4.85;1.30;;;;;;;23.85;47.03;101945.88;16116886;19;130197;-54
2023/08/16 11:29:54;;;;;;;9.75;1.88;;;;;;;23.86;47.08;101936.38;16114767;19;131153;-61
2023/08/16 11:35:16;;;;;;;4.70;1.60;;;;;;;23.87;46.75;101926.03;16114460;19;129197;-61
2023/08/16 11:40:40;;;;;;;5.90;1.65;;;;;;;23.90;46.66;101926.34;16113436;19;129605;-60
2023/08/16 11:46:04;;;;;;;5.13;1.42;;;;;;;23.93;46.67;101945.41;16114123;19;131092;-59
2023/08/16 11:51:27;;;;;;;4.78;1.50;;;;;;;23.97;46.97;101931.75;16109043;19;129634;-57
2023/08/16 11:56:50;;;;;;;7.05;1.67;;;;;;;23.97;46.57;101935.41;16111642;19;131177;-60
2023/08/16 12:02:13;;;;;;;4.82;1.55;;;;;;;24.01;46.40;101946.06;16107836;19;129540;-59
2023/08/16 12:07:47;;;;;;;5.25;1.77;;;;;;;24.02;46.68;101939.38;16110715;19;129778;-58
2023/08/16 12:13:14;;;;;;;3.33;1.50;;;;;;;23.97;46.95;101927.03;16105274;19;131109;-59
2023/08/16 12:18:37;;;;;;;5.20;1.33;;;;;;;23.94;46.82;101921.97;16102074;19;129745;-55
2023/08/16 12:23:59;;;;;;;7.50;1.67;;;;;;;23.93;46.77;101916.63;16103299;19;130774;-57
2023/08/16 12:29:22;;;;;;;5.40;1.50;;;;;;;23.91;46.66;101922.47;16106540;19;130779;-54
2023/08/16 12:34:43;;;;;;;6.90;1.67;;;;;;;23.91;46.92;101916.88;16107482;19;131343;-55
2023/08/16 12:40:25;;;;;;;4.00;1.60;;;;;;;23.90;46.88;101908.75;16105254;19;131578;-56
2023/08/16 12:45:47;;;;;;;6.40;1.73;;;;;;;23.89;47.01;101902.31;16102793;19;129326;-56
2023/08/16 12:51:09;;;;;;;4.97;1.48;;;;;;;23.89;46.74;101896.72;16115492;19;129700;-58
2023/08/16 12:56:34;;;;;;;;;;;;;;;23.85;46.70;101901.16;16122381;19;129549;-56
2023/08/16 13:01:56;;;;;;;3.83;1.70;;;;;;;23.89;46.99;101888.34;16122561;19;131089;-53
2023/08/16 13:07:21;;;;;;;3.63;1.73;;;;;;;23.88;46.63;101883.84;16115756;19;130951;-52
2023/08/16 13:12:46;;;;;;;6.32;1.80;;;;;;;23.85;47.00;101883.53;16120253;19;131307;-56
2023/08/16 13:18:11;;;;;;;3.40;1.70;;;;;;;23.85;46.67;101884.38;16119753;19;129631;-55
2023/08/16 13:23:36;;;;;;;7.00;1.55;;;;;;;23.86;46.71;101877.69;16108737;19;131626;-55
2023/08/16 13:29:14;;;;;;;3.78;1.58;;;;;;;23.85;46.98;101872.34;16119216;19;129971;-56
2023/08/16 13:34:44;;;;;;;3.85;1.50;;;;;;;23.83;46.70;101886.59;16114490;19;129653;-55
2023/08/16 13:40:09;;;;;;;3.25;1.38;;;;;;;23.82;46.64;101879.31;16120182;19;129380;-55
2023/08/16 13:45:46;;;;;;;3.75;1.60;;;;;;;23.82;46.65;101879.31;16125384;19;129919;-53
2023/08/16 13:51:11;;;;;;;3.72;1.30;;;;;;;23.81;46.84;101880.41;16122638;19;129375;-55
2023/08/16 13:56:33;;;;;;;4.22;1.48;;;;;;;23.80;46.75;101892.69;16123013;19;129779;-53
2023/08/16 14:02:08;;;;;;;5.47;1.23;;;;;;;23.78;47.07;101884.56;16124569;19;129310;-54
2023/08/16 14:07:30;;;;;;;5.10;1.50;;;;;;;23.77;46.66;101896.00;16124710;19;130219;-55
2023/08/16 14:12:52;;;;;;;5.88;1.80;;;;;;;23.76;46.69;101881.19;16124008;19;129525;-56
2023/08/16 14:18:14;;;;;;;3.85;1.38;;;;;;;23.75;46.63;101884.25;16117165;19;130817;-53
2023/08/16 14:23:36;;;;;;;4.18;1.50;;;;;;;23.75;46.95;101875.88;16116586;19;130535;-55
2023/08/16 14:29:04;;;;;;;3.95;1.35;;;;;;;23.74;46.50;101871.38;16111824;19;129624;-51
2023/08/16 14:34:26;;;;;;;3.23;1.43;;;;;;;23.72;46.28;101868.84;16110717;19;131759;-56
2023/08/16 14:39:48;;;;;;;3.97;1.20;;;;;;;23.72;46.59;101873.59;16112504;19;130925;-56
2023/08/16 14:45:10;;;;;;;3.75;1.52;;;;;;;23.71;46.78;101869.09;16113019;19;131839;-55
2023/08/16 14:50:32;;;;;;;3.50;1.38;;;;;;;23.72;46.37;101873.59;16112461;19;129750;-55
2023/08/16 14:55:54;;;;;;;2.78;1.20;;;;;;;23.71;46.37;101878.31;16115352;19;129898;-51
2023/08/16 15:01:16;;;;;;;3.33;1.20;;;;;;;23.69;46.40;101871.31;16114311;19;129664;-55
2023/08/16 15:06:38;;;;;;;1.98;1.20;;;;;;;23.68;46.64;101867.69;16111897;19;130393;-53
2023/08/16 15:12:00;;;;;;;4.63;1.10;;;;;;;23.67;46.55;101866.00;16111814;19;129524;-56
2023/08/16 15:17:22;;;;;;;3.20;1.40;;;;;;;23.66;46.74;101865.13;16113895;19;131533;-54
2023/08/16 15:22:44;;;;;;;3.25;1.20;;;;;;;23.66;46.62;101862.34;16114825;19;129804;-54
2023/08/16 15:28:06;;;;;;;3.13;1.50;;;;;;;23.65;46.68;101860.63;16112934;19;129740;-53
2023/08/16 15:33:29;;;;;;;3.65;1.15;;;;;;;23.65;46.63;101857.84;16111114;19;130154;-53
2023/08/16 15:38:51;;;;;;;3.25;1.25;;;;;;;23.64;46.75;101856.16;16111493;19;129824;-56
2023/08/16 15:44:13;;;;;;;3.15;1.40;;;;;;;23.64;46.49;101856.16;16111146;19;130725;-54
2023/08/16 15:49:35;;;;;;;3.17;1.35;;;;;;;23.63;46.84;101848.88;16114357;19;130374;-53
2023/08/16 15:54:57;;;;;;;3.42;1.30;;;;;;;23.62;46.74;101843.56;16113808;19;131113;-51
2023/08/16 16:00:19;;;;;;;2.85;1.25;;;;;;;23.62;46.78;101843.56;16113059;19;130444;-53
2023/08/16 16:05:41;;;;;;;3.08;1.40;;;;;;;23.60;46.80;101843.81;16109767;19;131772;-53
2023/08/16 16:11:03;;;;;;;4.22;1.40;;;;;;;23.58;46.92;101846.03;16110624;19;129881;-56
2023/08/16 16:16:25;;;;;;;1.30;0.98;;;;;;;23.57;46.91;101841.50;16100148;19;130174;-54
2023/08/16 16:21:47;;;;;;;2.70;1.27;;;;;;;23.55;46.96;101832.53;16099437;19;130140;-54
2023/08/16 16:27:09;;;;;;;3.28;1.27;;;;;;;23.58;46.99;101834.84;16119168;19;130708;-54
2023/08/16 16:32:31;;;;;;;4.22;1.10;;;;;;;23.58;46.88;101831.16;16117462;19;131168;-55
2023/08/16 16:37:54;;;;;;;1.77;1.20;;;;;;;23.57;46.93;101827.53;16124401;19;131493;-52
2023/08/16 16:43:16;;;;;;;3.08;1.10;;;;;;;23.57;47.32;101827.53;16119035;19;132260;-55
2023/08/16 16:48:37;;;;;;;4.35;1.10;;;;;;;23.55;47.00;101828.91;16122651;19;135256;-55
2023/08/16 16:53:59;;;;;;;2.25;1.30;;;;;;;23.53;46.98;101822.75;16122959;19;129708;-53
2023/08/16 16:59:22;;;;;;;3.75;1.52;;;;;;;23.53;46.89;101825.53;16119911;19;129608;-54
2023/08/16 17:04:44;;;;;;;4.65;1.20;;;;;;;23.51;47.16;101825.78;16118646;19;131114;-55
2023/08/16 17:10:06;;;;;;;2.38;1.17;;;;;;;23.49;47.04;101808.44;16120750;19;129651;-52
2023/08/16 17:15:28;;;;;;;2.47;1.10;;;;;;;23.49;46.98;101808.44;16118689;19;129577;-55
2023/08/16 17:20:50;;;;;;;2.28;1.20;;;;;;;23.48;46.90;101812.34;16121229;19;129382;-55
2023/08/16 17:26:13;;;;;;;1.95;1.05;;;;;;;23.48;46.90;101826.31;16118524;19;131093;-55
2023/08/16 17:31:36;;;;;;;2.35;1.10;;;;;;;23.45;46.94;101813.69;16114532;19;129306;-53
2023/08/16 17:36:58;;;;;;;1.40;1.00;;;;;;;23.45;46.94;101830.44;16114292;19;129770;-54
2023/08/16 17:42:20;;;;;;;2.35;1.27;;;;;;;23.45;46.86;101832.41;16120535;19;130589;-52
2023/08/16 17:47:42;;;;;;;4.03;1.10;;;;;;;23.44;46.87;101834.38;16118838;19;130140;-53
2023/08/16 17:53:04;;;;;;;3.50;1.25;;;;;;;23.43;46.83;101842.97;16118369;19;129469;-52
2023/08/16 17:58:28;;;;;;;3.47;1.40;;;;;;;23.42;46.97;101841.28;16115260;19;130421;-54
2023/08/16 18:03:49;;;;;;;2.83;1.05;;;;;;;23.41;46.85;101846.03;16115788;19;130906;-55
2023/08/16 18:09:11;;;;;;;1.98;1.25;;;;;;;23.40;46.84;101838.75;16115463;19;129448;-56
2023/08/16 18:14:33;;;;;;;2.55;1.45;;;;;;;23.40;46.92;101837.91;16117656;19;130814;-54
2023/08/16 18:19:55;;;;;;;4.10;1.27;;;;;;;23.38;46.89;101835.38;16117970;19;131069;-55
2023/08/16 18:25:18;;;;;;;2.35;0.98;;;;;;;23.38;46.84;101840.13;16116157;19;134078;-57
2023/08/16 18:30:41;;;;;;;3.20;1.77;;;;;;;23.37;46.62;101832.84;16110607;19;131750;-59
2023/08/16 18:36:03;;;;;;;2.55;1.38;;;;;;;23.35;46.99;101842.31;16116729;19;132757;-60
2023/08/16 18:41:25;;;;;;;2.53;1.50;;;;;;;23.35;46.94;101853.50;16110654;19;129654;-53
2023/08/16 18:46:47;;;;;;;1.75;1.27;;;;;;;23.34;46.94;101853.72;16114722;19;130538;-62
2023/08/16 18:52:09;;;;;;;3.22;1.35;;;;;;;23.34;47.05;101870.50;16107959;19;130045;-56
2023/08/16 18:57:31;;;;;;;2.85;1.25;;;;;;;23.32;47.09;101865.16;16109759;19;129894;-56
2023/08/16 19:02:53;;;;;;;1.30;1.10;;;;;;;23.32;46.74;101876.34;16116948;19;131309;-56
2023/08/16 19:08:15;;;;;;;5.07;1.73;;;;;;;23.31;47.08;101869.06;16110339;19;131009;-51
2023/08/16 19:13:37;;;;;;;4.22;1.48;;;;;;;23.32;47.07;101876.34;16099363;19;130520;-55
2023/08/16 19:18:59;;;;;;;2.00;1.30;;;;;;;23.31;47.08;101884.97;16107903;19;129797;-55
2023/08/16 19:24:21;;;;;;;2.90;1.30;;;;;;;23.30;47.03;101880.50;16111274;19;129330;-55
2023/08/16 19:29:43;;;;;;;2.80;1.40;;;;;;;23.29;46.94;101887.19;16117075;19;131409;-56
2023/08/16 19:35:06;;;;;;;2.95;1.30;;;;;;;23.28;47.05;101880.72;16114141;19;129768;-55
2023/08/16 19:40:31;;;;;;;1.92;1.40;;;;;;;23.27;47.31;101881.00;16110576;19;128908;-54
2023/08/16 19:45:53;;;;;;;2.28;1.20;;;;;;;23.26;47.26;101880.16;16112184;19;130173;-55
2023/08/16 19:51:15;;;;;;;1.95;1.40;;;;;;;23.27;47.03;101878.22;16106144;19;129801;-57
2023/08/16 19:56:37;;;;;;;35.75;3.72;;;;;;;23.24;47.21;101874.00;16108200;19;132279;-52
2023/08/16 20:01:59;;;;;;;13.77;2.10;;;;;;;23.25;47.06;101872.03;16120405;19;130465;-55
2023/08/16 20:07:21;;;;;;;13.30;2.00;;;;;;;23.25;47.17;101872.88;16124223;19;130103;-57
2023/08/16 20:12:45;;;;;;;12.95;2.20;;;;;;;23.25;47.55;101875.69;16123586;19;129592;-57
2023/08/16 20:18:07;;;;;;;6.57;1.90;;;;;;;23.26;47.14;101877.38;16125056;19;130377;-56
2023/08/16 20:23:30;;;;;;;32.63;3.92;;;;;;;23.28;46.85;101886.31;16123047;19;130251;-55
2023/08/16 20:28:52;;;;;;;23.58;2.65;;;;;;;23.26;47.20;101871.78;16125792;19;130269;-58
2023/08/16 20:34:20;;;;;;;16.48;2.10;;;;;;;23.29;47.43;101874.06;16123892;19;129526;-57
2023/08/16 20:39:42;;;;;;;17.52;2.25;;;;;;;23.29;47.52;101871.25;16120807;19;129805;-55
2023/08/16 20:45:11;;;;;;;20.67;2.60;;;;;;;23.30;47.15;101872.13;16123749;19;129412;-56
2023/08/16 20:50:34;;;;;;;16.60;2.47;;;;;;;23.28;47.49;101877.94;16124346;19;130570;-55
2023/08/16 20:55:56;;;;;;;14.68;2.72;;;;;;;23.29;47.46;101884.38;16121560;19;130720;-55
2023/08/16 21:01:17;;;;;;;8.63;2.17;;;;;;;23.28;47.84;101875.16;16124521;19;135555;-57
2023/08/16 21:06:39;;;;;;;18.08;2.42;;;;;;;23.29;47.66;101876.84;16123604;19;129507;-54
2023/08/16 21:12:01;;;;;;;15.00;2.42;;;;;;;23.29;47.13;101871.25;16124544;19;131260;-55
2023/08/16 21:17:23;;;;;;;13.65;2.58;;;;;;;23.29;47.40;101876.00;16119275;19;129844;-53
2023/08/16 21:22:46;;;;;;;9.93;2.30;;;;;;;23.27;47.61;101875.41;16121209;19;129375;-53
2023/08/16 21:28:08;;;;;;;11.23;2.17;;;;;;;23.26;47.58;101874.59;16118232;19;129649;-55
2023/08/16 21:33:30;;;;;;;12.15;2.30;;;;;;;23.25;47.36;101875.69;16118887;19;129689;-54
2023/08/16 21:38:53;;;;;;;13.90;1.85;;;;;;;23.23;47.25;101875.09;16120041;19;129704;-55
2023/08/16 21:44:15;;;;;;;7.82;1.80;;;;;;;23.21;46.88;101874.50;16117832;19;130349;-53
2023/08/16 21:49:40;;;;;;;8.88;2.00;;;;;;;23.20;46.98;101872.78;16117325;19;129641;-55
2023/08/16 21:55:02;;;;;;;8.05;2.15;;;;;;;23.18;46.94;101869.41;16117703;19;129776;-57
2023/08/16 22:00:27;;;;;;;7.90;1.70;;;;;;;23.18;47.21;101869.41;16116606;19;129506;-51
2023/08/16 22:05:54;;;;;;;9.48;2.00;;;;;;;23.16;47.13;101868.81;16116125;19;131107;-56
2023/08/16 22:11:16;;;;;;;6.80;1.45;;;;;;;23.15;46.97;101870.78;16112361;19;131433;-54
2023/08/16 22:16:38;;;;;;;9.85;1.90;;;;;;;23.14;47.02;101862.66;16116418;19;129561;-56
2023/08/16 22:22:01;;;;;;;3.35;1.50;;;;;;;23.13;46.93;101855.38;16116087;19;130034;-54
2023/08/16 22:27:23;;;;;;;6.28;1.90;;;;;;;23.13;46.95;101860.97;16112651;19;129452;-54
2023/08/16 22:32:47;;;;;;;5.45;1.85;;;;;;;23.12;46.87;101853.69;16114169;19;130681;-58
2023/08/16 22:38:09;;;;;;;5.80;1.73;;;;;;;23.12;47.03;101856.50;16114541;19;131322;-53
2023/08/16 22:43:31;;;;;;;4.57;1.55;;;;;;;23.12;46.91;101857.31;16113226;19;129655;-57
2023/08/16 22:48:53;;;;;;;5.53;1.42;;;;;;;23.11;46.65;101854.78;16107376;19;131726;-56
2023/08/16 22:54:14;;;;;;;4.57;1.15;;;;;;;23.10;46.72;101856.72;16114224;19;129737;-54
2023/08/16 22:59:36;;;;;;;8.90;1.55;;;;;;;23.09;46.68;101851.41;16114481;19;131172;-57
2023/08/16 23:04:59;;;;;;;3.20;1.60;;;;;;;23.09;46.43;101851.41;16114432;19;131858;-53
2023/08/16 23:10:20;;;;;;;4.20;1.60;;;;;;;23.09;46.70;101848.63;16107774;19;130056;-56
2023/08/16 23:15:42;;;;;;;4.10;1.40;;;;;;;23.08;46.56;101844.13;16108139;19;131111;-56
2023/08/16 23:21:04;;;;;;;3.70;1.50;;;;;;;23.08;46.46;101844.13;16112995;19;129559;-57
2023/08/16 23:26:26;;;;;;;3.22;1.10;;;;;;;23.08;46.54;101846.91;16109460;19;132065;-55
2023/08/16 23:31:48;;;;;;;3.55;1.25;;;;;;;23.06;46.81;101844.41;16110333;19;130521;-54
2023/08/16 23:37:10;;;;;;;3.53;1.35;;;;;;;23.06;46.55;101847.19;16111300;19;129720;-56
2023/08/16 23:42:32;;;;;;;3.30;1.30;;;;;;;23.04;46.41;101844.63;16105641;19;130537;-54
2023/08/16 23:47:54;;;;;;;2.65;1.10;;;;;;;23.04;46.07;101841.84;16105980;19;132429;-57
2023/08/16 23:53:16;;;;;;;3.08;1.30;;;;;;;23.04;46.38;101846.59;16106188;19;130561;-51
2023/08/16 23:58:38;;;;;;;3.38;1.10;;;;;;;23.04;46.32;101841.00;16108895;19;129657;-54
